Terminal Aerodrome Forecast
Issued by NWS

Home | Current Version | Previous Version | Text Only | Print | Product List | Glossary On
Versions: 1 2 3 4 5 6 7 8 9 10 11 12 13 14 15 16
000
FTUS45 KRIW 012300
TAFCPR
TAF
KCPR 012324Z 0200/0224 19010G16KT P6SM SCT070
     FM020200 20007KT P6SM FEW080
     FM021600 21015G21KT P6SM SCT080
     FM022000 22017G23KT P6SM SCT070 BKN150=

USA.gov is the U.S. government's official web portal to all federal, state and local government web resources and services.